sensor_id;sensor_type;location;lat;lon;timestamp;P1;durP1;ratioP1;P2;durP2;ratioP2
1128;SDS011;553;51.038;7.216;2023-05-24T00:02:13;5.00;;;2.23;;
1128;SDS011;553;51.038;7.216;2023-05-24T00:04:40;11.30;;;2.93;;
1128;SDS011;553;51.038;7.216;2023-05-24T00:07:07;8.20;;;2.57;;
1128;SDS011;553;51.038;7.216;2023-05-24T00:09:34;8.80;;;2.80;;
1128;SDS011;553;51.038;7.216;2023-05-24T00:12:01;8.90;;;2.83;;
1128;SDS011;553;51.038;7.216;2023-05-24T00:14:28;10.40;;;3.90;;
1128;SDS011;553;51.038;7.216;2023-05-24T00:16:55;15.00;;;2.50;;
1128;SDS011;553;51.038;7.216;2023-05-24T00:19:22;10.50;;;2.77;;
1128;SDS011;553;51.038;7.216;2023-05-24T00:21:49;11.97;;;3.00;;
1128;SDS011;553;51.038;7.216;2023-05-24T00:24:16;15.43;;;3.73;;
1128;SDS011;553;51.038;7.216;2023-05-24T00:26:43;9.60;;;2.70;;
1128;SDS011;553;51.038;7.216;2023-05-24T00:29:10;8.23;;;2.80;;
1128;SDS011;553;51.038;7.216;2023-05-24T00:31:37;7.80;;;3.40;;
1128;SDS011;553;51.038;7.216;2023-05-24T00:34:04;9.00;;;2.97;;
1128;SDS011;553;51.038;7.216;2023-05-24T00:36:30;8.13;;;2.70;;
1128;SDS011;553;51.038;7.216;2023-05-24T00:38:58;7.37;;;3.10;;
1128;SDS011;553;51.038;7.216;2023-05-24T00:41:25;8.80;;;3.13;;
1128;SDS011;553;51.038;7.216;2023-05-24T00:43:52;9.30;;;2.50;;
1128;SDS011;553;51.038;7.216;2023-05-24T00:46:26;6.60;;;2.70;;
1128;SDS011;553;51.038;7.216;2023-05-24T00:48:55;10.63;;;2.67;;
1128;SDS011;553;51.038;7.216;2023-05-24T00:51:22;11.10;;;3.10;;
1128;SDS011;553;51.038;7.216;2023-05-24T00:53:51;9.30;;;2.90;;
1128;SDS011;553;51.038;7.216;2023-05-24T00:56:18;10.87;;;2.43;;
1128;SDS011;553;51.038;7.216;2023-05-24T00:58:45;11.70;;;2.93;;
1128;SDS011;553;51.038;7.216;2023-05-24T01:01:12;8.60;;;3.27;;
1128;SDS011;553;51.038;7.216;2023-05-24T01:03:39;12.27;;;2.70;;
1128;SDS011;553;51.038;7.216;2023-05-24T01:06:07;10.43;;;2.80;;
1128;SDS011;553;51.038;7.216;2023-05-24T01:14:16;7.80;;;2.67;;
1128;SDS011;553;51.038;7.216;2023-05-24T01:25:18;13.43;;;2.97;;
1128;SDS011;553;51.038;7.216;2023-05-24T01:28:07;17.20;;;3.30;;
1128;SDS011;553;51.038;7.216;2023-05-24T01:30:37;9.20;;;2.97;;
1128;SDS011;553;51.038;7.216;2023-05-24T01:33:08;10.77;;;2.17;;
1128;SDS011;553;51.038;7.216;2023-05-24T01:35:35;8.97;;;2.80;;
1128;SDS011;553;51.038;7.216;2023-05-24T01:38:05;12.93;;;3.80;;
1128;SDS011;553;51.038;7.216;2023-05-24T01:40:33;9.87;;;3.13;;
1128;SDS011;553;51.038;7.216;2023-05-24T01:43:02;11.17;;;2.80;;
1128;SDS011;553;51.038;7.216;2023-05-24T01:45:48;9.43;;;3.00;;
1128;SDS011;553;51.038;7.216;2023-05-24T01:48:41;5.00;;;2.50;;
1128;SDS011;553;51.038;7.216;2023-05-24T01:51:25;10.77;;;2.67;;
1128;SDS011;553;51.038;7.216;2023-05-24T01:53:57;14.03;;;2.67;;
1128;SDS011;553;51.038;7.216;2023-05-24T01:56:25;7.50;;;3.20;;
1128;SDS011;553;51.038;7.216;2023-05-24T01:58:54;5.47;;;3.00;;
1128;SDS011;553;51.038;7.216;2023-05-24T02:01:23;10.47;;;2.80;;
1128;SDS011;553;51.038;7.216;2023-05-24T02:03:51;8.77;;;3.20;;
1128;SDS011;553;51.038;7.216;2023-05-24T02:06:18;7.10;;;2.83;;
1128;SDS011;553;51.038;7.216;2023-05-24T02:08:45;8.10;;;2.70;;
1128;SDS011;553;51.038;7.216;2023-05-24T02:11:12;6.47;;;2.40;;
1128;SDS011;553;51.038;7.216;2023-05-24T02:13:39;11.50;;;2.70;;
1128;SDS011;553;51.038;7.216;2023-05-24T02:16:05;7.70;;;2.90;;
1128;SDS011;553;51.038;7.216;2023-05-24T02:18:32;10.03;;;2.50;;
1128;SDS011;553;51.038;7.216;2023-05-24T02:21:00;11.63;;;2.93;;
1128;SDS011;553;51.038;7.216;2023-05-24T02:23:27;15.87;;;3.10;;
1128;SDS011;553;51.038;7.216;2023-05-24T02:25:54;11.70;;;2.73;;
1128;SDS011;553;51.038;7.216;2023-05-24T02:28:21;7.80;;;2.97;;
1128;SDS011;553;51.038;7.216;2023-05-24T02:30:48;7.90;;;2.90;;
1128;SDS011;553;51.038;7.216;2023-05-24T02:33:15;11.90;;;3.13;;
1128;SDS011;553;51.038;7.216;2023-05-24T02:35:42;9.27;;;2.93;;
1128;SDS011;553;51.038;7.216;2023-05-24T02:38:08;10.03;;;4.27;;
1128;SDS011;553;51.038;7.216;2023-05-24T02:40:35;6.43;;;2.10;;
1128;SDS011;553;51.038;7.216;2023-05-24T02:43:02;14.20;;;3.10;;
1128;SDS011;553;51.038;7.216;2023-05-24T02:45:29;9.00;;;2.90;;
1128;SDS011;553;51.038;7.216;2023-05-24T02:47:56;6.53;;;2.90;;
1128;SDS011;553;51.038;7.216;2023-05-24T02:50:22;10.03;;;2.67;;
1128;SDS011;553;51.038;7.216;2023-05-24T02:52:49;9.13;;;3.30;;
1128;SDS011;553;51.038;7.216;2023-05-24T02:55:17;12.20;;;3.13;;
1128;SDS011;553;51.038;7.216;2023-05-24T02:57:43;13.27;;;3.20;;
1128;SDS011;553;51.038;7.216;2023-05-24T03:00:11;9.30;;;2.40;;
1128;SDS011;553;51.038;7.216;2023-05-24T03:02:40;9.43;;;3.23;;
1128;SDS011;553;51.038;7.216;2023-05-24T03:05:07;9.90;;;2.47;;
1128;SDS011;553;51.038;7.216;2023-05-24T03:07:34;7.07;;;2.30;;
1128;SDS011;553;51.038;7.216;2023-05-24T03:10:01;7.87;;;2.90;;
1128;SDS011;553;51.038;7.216;2023-05-24T03:12:27;11.30;;;3.33;;
1128;SDS011;553;51.038;7.216;2023-05-24T03:14:54;7.63;;;2.10;;
1128;SDS011;553;51.038;7.216;2023-05-24T03:17:21;14.37;;;3.00;;
1128;SDS011;553;51.038;7.216;2023-05-24T03:19:48;9.27;;;2.60;;
1128;SDS011;553;51.038;7.216;2023-05-24T03:22:15;9.67;;;2.67;;
1128;SDS011;553;51.038;7.216;2023-05-24T03:24:41;10.03;;;2.50;;
1128;SDS011;553;51.038;7.216;2023-05-24T03:27:10;7.37;;;2.67;;
1128;SDS011;553;51.038;7.216;2023-05-24T03:29:37;9.30;;;3.57;;
1128;SDS011;553;51.038;7.216;2023-05-24T03:32:03;11.40;;;3.20;;
1128;SDS011;553;51.038;7.216;2023-05-24T03:34:30;7.97;;;2.70;;
1128;SDS011;553;51.038;7.216;2023-05-24T03:36:58;10.27;;;2.50;;
1128;SDS011;553;51.038;7.216;2023-05-24T03:39:25;7.80;;;3.83;;
1128;SDS011;553;51.038;7.216;2023-05-24T03:42:27;6.87;;;3.77;;
1128;SDS011;553;51.038;7.216;2023-05-24T03:44:53;10.70;;;3.00;;
1128;SDS011;553;51.038;7.216;2023-05-24T03:47:20;6.10;;;2.73;;
1128;SDS011;553;51.038;7.216;2023-05-24T03:49:47;11.07;;;3.60;;
1128;SDS011;553;51.038;7.216;2023-05-24T03:52:14;7.60;;;2.23;;
1128;SDS011;553;51.038;7.216;2023-05-24T03:54:41;6.67;;;2.83;;
1128;SDS011;553;51.038;7.216;2023-05-24T03:57:09;5.83;;;3.00;;
1128;SDS011;553;51.038;7.216;2023-05-24T03:59:35;5.97;;;2.53;;
1128;SDS011;553;51.038;7.216;2023-05-24T04:02:05;5.17;;;2.17;;
1128;SDS011;553;51.038;7.216;2023-05-24T04:04:32;8.60;;;2.73;;
1128;SDS011;553;51.038;7.216;2023-05-24T04:06:59;12.03;;;2.40;;
1128;SDS011;553;51.038;7.216;2023-05-24T04:09:26;7.83;;;4.33;;
1128;SDS011;553;51.038;7.216;2023-05-24T04:11:54;11.20;;;3.50;;
1128;SDS011;553;51.038;7.216;2023-05-24T04:14:20;12.83;;;3.67;;
1128;SDS011;553;51.038;7.216;2023-05-24T04:16:47;8.27;;;3.23;;
1128;SDS011;553;51.038;7.216;2023-05-24T04:19:14;8.77;;;2.73;;
1128;SDS011;553;51.038;7.216;2023-05-24T04:21:41;9.47;;;3.27;;
1128;SDS011;553;51.038;7.216;2023-05-24T04:24:07;6.80;;;2.43;;
1128;SDS011;553;51.038;7.216;2023-05-24T04:26:34;9.03;;;3.17;;
1128;SDS011;553;51.038;7.216;2023-05-24T04:29:03;11.67;;;3.40;;
1128;SDS011;553;51.038;7.216;2023-05-24T04:31:29;19.20;;;4.40;;
1128;SDS011;553;51.038;7.216;2023-05-24T04:33:58;8.73;;;3.70;;
1128;SDS011;553;51.038;7.216;2023-05-24T04:36:25;12.23;;;3.90;;
1128;SDS011;553;51.038;7.216;2023-05-24T04:38:53;6.47;;;4.23;;
1128;SDS011;553;51.038;7.216;2023-05-24T04:41:21;9.47;;;3.20;;
1128;SDS011;553;51.038;7.216;2023-05-24T04:43:47;9.73;;;3.13;;
1128;SDS011;553;51.038;7.216;2023-05-24T04:46:15;28.53;;;3.47;;
1128;SDS011;553;51.038;7.216;2023-05-24T04:48:42;11.50;;;3.47;;
1128;SDS011;553;51.038;7.216;2023-05-24T04:51:08;11.20;;;3.60;;
1128;SDS011;553;51.038;7.216;2023-05-24T04:53:35;9.17;;;3.63;;
1128;SDS011;553;51.038;7.216;2023-05-24T04:56:03;12.27;;;3.90;;
1128;SDS011;553;51.038;7.216;2023-05-24T04:58:30;10.77;;;4.97;;
1128;SDS011;553;51.038;7.216;2023-05-24T05:00:58;17.77;;;5.77;;
1128;SDS011;553;51.038;7.216;2023-05-24T05:03:25;12.80;;;4.10;;
1128;SDS011;553;51.038;7.216;2023-05-24T05:05:51;13.37;;;4.83;;
1128;SDS011;553;51.038;7.216;2023-05-24T05:08:18;7.37;;;3.63;;
1128;SDS011;553;51.038;7.216;2023-05-24T05:10:45;8.27;;;3.37;;
1128;SDS011;553;51.038;7.216;2023-05-24T05:13:13;9.53;;;3.70;;
1128;SDS011;553;51.038;7.216;2023-05-24T05:15:39;11.10;;;4.30;;
1128;SDS011;553;51.038;7.216;2023-05-24T05:18:08;14.30;;;5.40;;
1128;SDS011;553;51.038;7.216;2023-05-24T05:20:34;12.40;;;4.90;;
1128;SDS011;553;51.038;7.216;2023-05-24T05:23:01;18.20;;;5.33;;
1128;SDS011;553;51.038;7.216;2023-05-24T05:25:28;18.10;;;5.20;;
1128;SDS011;553;51.038;7.216;2023-05-24T05:27:56;15.17;;;5.97;;
1128;SDS011;553;51.038;7.216;2023-05-24T05:30:22;15.77;;;5.10;;
1128;SDS011;553;51.038;7.216;2023-05-24T05:32:49;8.70;;;4.17;;
1128;SDS011;553;51.038;7.216;2023-05-24T05:35:16;13.90;;;4.97;;
1128;SDS011;553;51.038;7.216;2023-05-24T05:37:43;19.30;;;5.17;;
1128;SDS011;553;51.038;7.216;2023-05-24T05:40:09;16.17;;;5.40;;
1128;SDS011;553;51.038;7.216;2023-05-24T05:42:36;23.80;;;6.00;;
1128;SDS011;553;51.038;7.216;2023-05-24T05:45:03;18.80;;;5.37;;
1128;SDS011;553;51.038;7.216;2023-05-24T05:47:30;15.63;;;6.33;;
1128;SDS011;553;51.038;7.216;2023-05-24T05:49:57;20.10;;;5.60;;
1128;SDS011;553;51.038;7.216;2023-05-24T05:52:24;17.53;;;5.30;;
1128;SDS011;553;51.038;7.216;2023-05-24T05:54:50;21.50;;;6.37;;
1128;SDS011;553;51.038;7.216;2023-05-24T05:57:17;16.50;;;6.00;;
1128;SDS011;553;51.038;7.216;2023-05-24T05:59:49;24.33;;;6.73;;
1128;SDS011;553;51.038;7.216;2023-05-24T06:02:16;15.40;;;5.70;;
1128;SDS011;553;51.038;7.216;2023-05-24T06:04:44;20.00;;;6.47;;
1128;SDS011;553;51.038;7.216;2023-05-24T06:07:12;17.17;;;6.00;;
1128;SDS011;553;51.038;7.216;2023-05-24T06:09:38;14.20;;;5.33;;
1128;SDS011;553;51.038;7.216;2023-05-24T06:12:06;18.73;;;5.30;;
1128;SDS011;553;51.038;7.216;2023-05-24T06:14:32;17.43;;;5.70;;
1128;SDS011;553;51.038;7.216;2023-05-24T06:16:59;21.63;;;6.10;;
1128;SDS011;553;51.038;7.216;2023-05-24T06:19:27;19.00;;;5.80;;
1128;SDS011;553;51.038;7.216;2023-05-24T06:21:53;18.73;;;5.40;;
1128;SDS011;553;51.038;7.216;2023-05-24T06:24:21;19.97;;;5.20;;
1128;SDS011;553;51.038;7.216;2023-05-24T06:26:48;18.10;;;6.10;;
1128;SDS011;553;51.038;7.216;2023-05-24T06:29:16;16.73;;;5.43;;
1128;SDS011;553;51.038;7.216;2023-05-24T06:31:47;29.27;;;6.23;;
1128;SDS011;553;51.038;7.216;2023-05-24T06:34:15;22.93;;;5.83;;
1128;SDS011;553;51.038;7.216;2023-05-24T06:36:42;12.20;;;4.90;;
1128;SDS011;553;51.038;7.216;2023-05-24T06:39:12;17.03;;;5.27;;
1128;SDS011;553;51.038;7.216;2023-05-24T06:41:39;18.80;;;4.97;;
1128;SDS011;553;51.038;7.216;2023-05-24T06:44:06;18.37;;;6.60;;
1128;SDS011;553;51.038;7.216;2023-05-24T06:46:33;23.33;;;5.60;;
1128;SDS011;553;51.038;7.216;2023-05-24T06:48:59;20.67;;;5.70;;
1128;SDS011;553;51.038;7.216;2023-05-24T06:51:26;16.33;;;5.60;;
1128;SDS011;553;51.038;7.216;2023-05-24T06:53:53;15.80;;;4.47;;
1128;SDS011;553;51.038;7.216;2023-05-24T06:56:20;21.57;;;5.83;;
1128;SDS011;553;51.038;7.216;2023-05-24T06:58:48;16.50;;;5.10;;
1128;SDS011;553;51.038;7.216;2023-05-24T07:01:14;11.97;;;3.70;;
1128;SDS011;553;51.038;7.216;2023-05-24T07:03:42;15.20;;;4.80;;
1128;SDS011;553;51.038;7.216;2023-05-24T07:06:08;21.60;;;6.27;;
1128;SDS011;553;51.038;7.216;2023-05-24T07:08:39;15.00;;;5.40;;
1128;SDS011;553;51.038;7.216;2023-05-24T07:11:09;21.10;;;5.13;;
1128;SDS011;553;51.038;7.216;2023-05-24T07:13:36;16.80;;;5.40;;
1128;SDS011;553;51.038;7.216;2023-05-24T07:16:02;17.53;;;4.80;;
1128;SDS011;553;51.038;7.216;2023-05-24T07:18:29;17.53;;;5.80;;
1128;SDS011;553;51.038;7.216;2023-05-24T07:20:56;16.73;;;4.20;;
1128;SDS011;553;51.038;7.216;2023-05-24T07:23:23;19.33;;;4.60;;
1128;SDS011;553;51.038;7.216;2023-05-24T07:25:50;22.13;;;5.40;;
1128;SDS011;553;51.038;7.216;2023-05-24T07:28:17;13.80;;;4.90;;
1128;SDS011;553;51.038;7.216;2023-05-24T07:30:45;16.23;;;5.73;;
1128;SDS011;553;51.038;7.216;2023-05-24T07:33:12;22.47;;;5.17;;
1128;SDS011;553;51.038;7.216;2023-05-24T07:35:39;17.87;;;5.23;;
1128;SDS011;553;51.038;7.216;2023-05-24T07:38:06;14.90;;;5.07;;
1128;SDS011;553;51.038;7.216;2023-05-24T07:40:33;23.20;;;6.10;;
1128;SDS011;553;51.038;7.216;2023-05-24T07:43:00;13.70;;;3.70;;
1128;SDS011;553;51.038;7.216;2023-05-24T07:45:29;15.47;;;5.20;;
1128;SDS011;553;51.038;7.216;2023-05-24T07:47:56;13.93;;;4.00;;
1128;SDS011;553;51.038;7.216;2023-05-24T07:50:23;15.23;;;4.17;;
1128;SDS011;553;51.038;7.216;2023-05-24T07:52:51;15.80;;;3.70;;
1128;SDS011;553;51.038;7.216;2023-05-24T07:55:18;16.03;;;3.87;;
1128;SDS011;553;51.038;7.216;2023-05-24T07:57:44;12.90;;;4.40;;
1128;SDS011;553;51.038;7.216;2023-05-24T08:00:12;12.27;;;3.70;;
1128;SDS011;553;51.038;7.216;2023-05-24T08:02:43;12.70;;;4.90;;
1128;SDS011;553;51.038;7.216;2023-05-24T08:05:11;11.53;;;3.20;;
1128;SDS011;553;51.038;7.216;2023-05-24T08:07:40;8.60;;;3.97;;
1128;SDS011;553;51.038;7.216;2023-05-24T08:10:08;14.23;;;3.40;;
1128;SDS011;553;51.038;7.216;2023-05-24T08:12:37;8.53;;;3.37;;
1128;SDS011;553;51.038;7.216;2023-05-24T08:15:04;11.83;;;3.80;;
1128;SDS011;553;51.038;7.216;2023-05-24T08:17:32;11.10;;;4.13;;
1128;SDS011;553;51.038;7.216;2023-05-24T08:19:59;12.90;;;3.70;;
1128;SDS011;553;51.038;7.216;2023-05-24T08:22:26;9.77;;;4.00;;
1128;SDS011;553;51.038;7.216;2023-05-24T08:24:53;6.53;;;3.53;;
1128;SDS011;553;51.038;7.216;2023-05-24T08:27:19;16.67;;;4.10;;
1128;SDS011;553;51.038;7.216;2023-05-24T08:29:48;7.00;;;3.20;;
1128;SDS011;553;51.038;7.216;2023-05-24T08:32:14;14.80;;;5.30;;
1128;SDS011;553;51.038;7.216;2023-05-24T08:34:41;13.40;;;3.57;;
1128;SDS011;553;51.038;7.216;2023-05-24T08:37:09;9.20;;;3.83;;
1128;SDS011;553;51.038;7.216;2023-05-24T08:39:37;7.40;;;3.50;;
1128;SDS011;553;51.038;7.216;2023-05-24T08:42:04;12.30;;;3.70;;
1128;SDS011;553;51.038;7.216;2023-05-24T08:44:40;12.07;;;4.07;;
1128;SDS011;553;51.038;7.216;2023-05-24T08:47:12;16.37;;;4.07;;
1128;SDS011;553;51.038;7.216;2023-05-24T08:49:40;13.03;;;4.03;;
1128;SDS011;553;51.038;7.216;2023-05-24T08:52:08;12.10;;;5.13;;
1128;SDS011;553;51.038;7.216;2023-05-24T08:54:37;12.47;;;4.20;;
1128;SDS011;553;51.038;7.216;2023-05-24T08:57:05;10.10;;;4.60;;
1128;SDS011;553;51.038;7.216;2023-05-24T08:59:32;9.73;;;3.90;;
1128;SDS011;553;51.038;7.216;2023-05-24T09:01:59;11.60;;;4.30;;
1128;SDS011;553;51.038;7.216;2023-05-24T09:04:27;10.93;;;3.87;;
1128;SDS011;553;51.038;7.216;2023-05-24T09:06:55;18.13;;;4.70;;
1128;SDS011;553;51.038;7.216;2023-05-24T09:09:23;13.57;;;4.60;;
1128;SDS011;553;51.038;7.216;2023-05-24T09:11:52;14.40;;;4.63;;
1128;SDS011;553;51.038;7.216;2023-05-24T09:14:24;13.43;;;4.13;;
1128;SDS011;553;51.038;7.216;2023-05-24T09:16:51;13.60;;;4.30;;
1128;SDS011;553;51.038;7.216;2023-05-24T09:19:18;11.20;;;4.10;;
1128;SDS011;553;51.038;7.216;2023-05-24T09:21:45;16.80;;;3.90;;
1128;SDS011;553;51.038;7.216;2023-05-24T09:24:14;9.33;;;3.90;;
1128;SDS011;553;51.038;7.216;2023-05-24T09:26:41;14.00;;;5.10;;
1128;SDS011;553;51.038;7.216;2023-05-24T09:29:08;12.30;;;4.30;;
1128;SDS011;553;51.038;7.216;2023-05-24T09:31:37;6.47;;;3.47;;
1128;SDS011;553;51.038;7.216;2023-05-24T09:34:08;13.10;;;4.43;;
1128;SDS011;553;51.038;7.216;2023-05-24T09:36:39;14.30;;;4.93;;
1128;SDS011;553;51.038;7.216;2023-05-24T09:39:08;10.00;;;4.63;;
1128;SDS011;553;51.038;7.216;2023-05-24T09:41:35;13.97;;;4.60;;
1128;SDS011;553;51.038;7.216;2023-05-24T09:44:03;18.87;;;5.30;;
1128;SDS011;553;51.038;7.216;2023-05-24T09:46:34;15.60;;;5.33;;
1128;SDS011;553;51.038;7.216;2023-05-24T09:49:03;11.73;;;4.60;;
1128;SDS011;553;51.038;7.216;2023-05-24T09:51:33;12.73;;;5.40;;
1128;SDS011;553;51.038;7.216;2023-05-24T09:54:03;8.40;;;4.47;;
1128;SDS011;553;51.038;7.216;2023-05-24T09:56:31;12.77;;;4.90;;
1128;SDS011;553;51.038;7.216;2023-05-24T09:59:04;10.10;;;4.50;;
1128;SDS011;553;51.038;7.216;2023-05-24T10:01:34;14.00;;;4.40;;
1128;SDS011;553;51.038;7.216;2023-05-24T10:04:01;7.13;;;4.27;;
1128;SDS011;553;51.038;7.216;2023-05-24T10:06:35;11.80;;;4.53;;
1128;SDS011;553;51.038;7.216;2023-05-24T10:09:05;12.90;;;4.20;;
1128;SDS011;553;51.038;7.216;2023-05-24T10:11:33;17.27;;;4.60;;
1128;SDS011;553;51.038;7.216;2023-05-24T10:14:05;12.23;;;4.30;;
1128;SDS011;553;51.038;7.216;2023-05-24T10:16:34;15.27;;;4.73;;
1128;SDS011;553;51.038;7.216;2023-05-24T10:19:03;13.87;;;3.53;;
1128;SDS011;553;51.038;7.216;2023-05-24T10:21:32;8.17;;;3.77;;
1128;SDS011;553;51.038;7.216;2023-05-24T10:24:02;11.20;;;4.10;;
1128;SDS011;553;51.038;7.216;2023-05-24T10:26:34;15.90;;;4.83;;
1128;SDS011;553;51.038;7.216;2023-05-24T10:29:05;13.13;;;4.03;;
1128;SDS011;553;51.038;7.216;2023-05-24T10:31:37;13.30;;;4.30;;
1128;SDS011;553;51.038;7.216;2023-05-24T10:34:05;13.30;;;3.57;;
1128;SDS011;553;51.038;7.216;2023-05-24T10:36:34;9.80;;;4.10;;
1128;SDS011;553;51.038;7.216;2023-05-24T10:39:02;10.63;;;4.30;;
1128;SDS011;553;51.038;7.216;2023-05-24T10:41:29;6.43;;;4.03;;
1128;SDS011;553;51.038;7.216;2023-05-24T10:44:09;15.63;;;4.43;;
1128;SDS011;553;51.038;7.216;2023-05-24T10:49:28;24.83;;;4.80;;
1128;SDS011;553;51.038;7.216;2023-05-24T10:52:28;8.57;;;3.93;;
1128;SDS011;553;51.038;7.216;2023-05-24T10:55:05;13.63;;;4.30;;
1128;SDS011;553;51.038;7.216;2023-05-24T10:57:35;15.60;;;4.90;;
1128;SDS011;553;51.038;7.216;2023-05-24T11:03:00;12.73;;;4.47;;
1128;SDS011;553;51.038;7.216;2023-05-24T11:08:13;14.37;;;6.03;;
1128;SDS011;553;51.038;7.216;2023-05-24T11:10:46;10.30;;;4.67;;
1128;SDS011;553;51.038;7.216;2023-05-24T11:13:12;15.23;;;5.07;;
1128;SDS011;553;51.038;7.216;2023-05-24T11:15:47;12.70;;;4.07;;
1128;SDS011;553;51.038;7.216;2023-05-24T11:18:16;10.93;;;5.10;;
1128;SDS011;553;51.038;7.216;2023-05-24T11:20:47;14.73;;;5.67;;
1128;SDS011;553;51.038;7.216;2023-05-24T11:23:15;13.83;;;5.80;;
1128;SDS011;553;51.038;7.216;2023-05-24T11:25:42;12.47;;;4.57;;
1128;SDS011;553;51.038;7.216;2023-05-24T11:28:10;13.20;;;5.60;;
1128;SDS011;553;51.038;7.216;2023-05-24T11:30:46;11.23;;;5.50;;
1128;SDS011;553;51.038;7.216;2023-05-24T11:35:45;8.93;;;4.20;;
1128;SDS011;553;51.038;7.216;2023-05-24T11:38:13;14.27;;;5.10;;
1128;SDS011;553;51.038;7.216;2023-05-24T11:40:41;11.33;;;5.37;;
1128;SDS011;553;51.038;7.216;2023-05-24T11:43:12;17.13;;;5.57;;
1128;SDS011;553;51.038;7.216;2023-05-24T11:45:49;12.70;;;6.13;;
1128;SDS011;553;51.038;7.216;2023-05-24T11:48:17;12.27;;;5.57;;
1128;SDS011;553;51.038;7.216;2023-05-24T11:50:45;14.10;;;5.27;;
1128;SDS011;553;51.038;7.216;2023-05-24T11:53:17;10.77;;;4.57;;
1128;SDS011;553;51.038;7.216;2023-05-24T11:55:46;13.73;;;5.40;;
1128;SDS011;553;51.038;7.216;2023-05-24T12:00:48;11.17;;;4.70;;
1128;SDS011;553;51.038;7.216;2023-05-24T12:03:16;10.70;;;4.83;;
1128;SDS011;553;51.038;7.216;2023-05-24T12:05:43;11.47;;;5.07;;
1128;SDS011;553;51.038;7.216;2023-05-24T12:08:11;15.40;;;6.40;;
1128;SDS011;553;51.038;7.216;2023-05-24T12:10:39;10.70;;;5.60;;
1128;SDS011;553;51.038;7.216;2023-05-24T12:13:20;10.57;;;4.40;;
1128;SDS011;553;51.038;7.216;2023-05-24T12:15:49;12.33;;;4.40;;
1128;SDS011;553;51.038;7.216;2023-05-24T12:18:22;12.00;;;5.40;;
1128;SDS011;553;51.038;7.216;2023-05-24T12:20:51;12.33;;;5.77;;
1128;SDS011;553;51.038;7.216;2023-05-24T12:23:19;11.60;;;5.20;;
1128;SDS011;553;51.038;7.216;2023-05-24T12:25:48;9.87;;;4.70;;
1128;SDS011;553;51.038;7.216;2023-05-24T12:28:18;11.30;;;5.00;;
1128;SDS011;553;51.038;7.216;2023-05-24T12:30:48;15.90;;;5.13;;
1128;SDS011;553;51.038;7.216;2023-05-24T12:33:17;14.40;;;4.83;;
1128;SDS011;553;51.038;7.216;2023-05-24T12:35:45;12.00;;;5.53;;
1128;SDS011;553;51.038;7.216;2023-05-24T12:38:12;9.10;;;5.17;;
1128;SDS011;553;51.038;7.216;2023-05-24T12:40:41;15.00;;;4.77;;
1128;SDS011;553;51.038;7.216;2023-05-24T12:43:09;9.13;;;4.37;;
1128;SDS011;553;51.038;7.216;2023-05-24T12:45:39;8.50;;;4.33;;
1128;SDS011;553;51.038;7.216;2023-05-24T12:48:06;13.47;;;5.60;;
1128;SDS011;553;51.038;7.216;2023-05-24T12:50:33;13.40;;;5.43;;
1128;SDS011;553;51.038;7.216;2023-05-24T12:53:00;14.60;;;5.87;;
1128;SDS011;553;51.038;7.216;2023-05-24T12:55:27;15.60;;;5.63;;
1128;SDS011;553;51.038;7.216;2023-05-24T12:57:54;14.20;;;5.20;;
1128;SDS011;553;51.038;7.216;2023-05-24T13:00:25;14.60;;;5.73;;
1128;SDS011;553;51.038;7.216;2023-05-24T13:02:53;13.20;;;6.10;;
1128;SDS011;553;51.038;7.216;2023-05-24T13:05:25;10.73;;;4.70;;
1128;SDS011;553;51.038;7.216;2023-05-24T13:07:53;12.63;;;5.50;;
1128;SDS011;553;51.038;7.216;2023-05-24T13:10:22;10.00;;;4.63;;
1128;SDS011;553;51.038;7.216;2023-05-24T13:12:49;15.50;;;5.57;;
1128;SDS011;553;51.038;7.216;2023-05-24T13:15:16;11.83;;;5.00;;
1128;SDS011;553;51.038;7.216;2023-05-24T13:17:44;12.30;;;5.40;;
1128;SDS011;553;51.038;7.216;2023-05-24T13:20:12;11.63;;;4.93;;
1128;SDS011;553;51.038;7.216;2023-05-24T13:22:38;15.37;;;5.37;;
1128;SDS011;553;51.038;7.216;2023-05-24T13:25:05;12.93;;;5.10;;
1128;SDS011;553;51.038;7.216;2023-05-24T13:27:33;13.60;;;4.53;;
1128;SDS011;553;51.038;7.216;2023-05-24T13:30:00;13.07;;;4.83;;
1128;SDS011;553;51.038;7.216;2023-05-24T13:32:27;10.20;;;4.43;;
1128;SDS011;553;51.038;7.216;2023-05-24T13:34:54;11.73;;;4.20;;
1128;SDS011;553;51.038;7.216;2023-05-24T13:37:20;13.63;;;4.80;;
1128;SDS011;553;51.038;7.216;2023-05-24T13:39:48;14.03;;;4.67;;
1128;SDS011;553;51.038;7.216;2023-05-24T13:42:15;13.90;;;4.37;;
1128;SDS011;553;51.038;7.216;2023-05-24T13:44:42;12.33;;;4.83;;
1128;SDS011;553;51.038;7.216;2023-05-24T13:47:08;10.60;;;4.17;;
1128;SDS011;553;51.038;7.216;2023-05-24T13:49:35;14.77;;;5.20;;
1128;SDS011;553;51.038;7.216;2023-05-24T13:52:02;9.57;;;4.03;;
1128;SDS011;553;51.038;7.216;2023-05-24T13:54:29;15.93;;;5.10;;
1128;SDS011;553;51.038;7.216;2023-05-24T13:56:57;13.23;;;4.47;;
1128;SDS011;553;51.038;7.216;2023-05-24T13:59:24;14.07;;;5.33;;
1128;SDS011;553;51.038;7.216;2023-05-24T14:01:52;13.10;;;4.90;;
1128;SDS011;553;51.038;7.216;2023-05-24T14:04:19;11.27;;;4.40;;
1128;SDS011;553;51.038;7.216;2023-05-24T14:06:46;11.40;;;4.30;;
1128;SDS011;553;51.038;7.216;2023-05-24T14:09:13;14.37;;;4.60;;
1128;SDS011;553;51.038;7.216;2023-05-24T14:11:40;16.83;;;5.73;;
1128;SDS011;553;51.038;7.216;2023-05-24T14:14:07;12.00;;;5.17;;
1128;SDS011;553;51.038;7.216;2023-05-24T14:16:53;12.60;;;5.10;;
1128;SDS011;553;51.038;7.216;2023-05-24T14:19:21;12.37;;;5.17;;
1128;SDS011;553;51.038;7.216;2023-05-24T14:21:47;14.83;;;4.83;;
1128;SDS011;553;51.038;7.216;2023-05-24T14:24:14;15.07;;;4.77;;
1128;SDS011;553;51.038;7.216;2023-05-24T14:26:41;15.07;;;6.23;;
1128;SDS011;553;51.038;7.216;2023-05-24T14:29:08;15.47;;;5.63;;
1128;SDS011;553;51.038;7.216;2023-05-24T14:31:35;18.07;;;5.80;;
1128;SDS011;553;51.038;7.216;2023-05-24T14:34:07;12.33;;;5.77;;
1128;SDS011;553;51.038;7.216;2023-05-24T14:36:39;18.00;;;7.00;;
1128;SDS011;553;51.038;7.216;2023-05-24T14:39:06;14.33;;;6.40;;
1128;SDS011;553;51.038;7.216;2023-05-24T14:41:33;18.47;;;4.93;;
1128;SDS011;553;51.038;7.216;2023-05-24T14:44:00;21.37;;;6.17;;
1128;SDS011;553;51.038;7.216;2023-05-24T14:46:27;11.63;;;5.23;;
1128;SDS011;553;51.038;7.216;2023-05-24T14:48:53;11.77;;;5.10;;
1128;SDS011;553;51.038;7.216;2023-05-24T14:51:20;10.90;;;4.57;;
1128;SDS011;553;51.038;7.216;2023-05-24T14:53:47;13.77;;;5.17;;
1128;SDS011;553;51.038;7.216;2023-05-24T14:56:14;11.27;;;5.37;;
1128;SDS011;553;51.038;7.216;2023-05-24T14:58:41;15.80;;;5.30;;
1128;SDS011;553;51.038;7.216;2023-05-24T15:01:08;11.60;;;4.90;;
1128;SDS011;553;51.038;7.216;2023-05-24T15:03:35;9.00;;;5.13;;
1128;SDS011;553;51.038;7.216;2023-05-24T15:06:02;14.60;;;6.07;;
1128;SDS011;553;51.038;7.216;2023-05-24T15:08:29;16.63;;;6.03;;
1128;SDS011;553;51.038;7.216;2023-05-24T15:10:56;9.77;;;4.47;;
1128;SDS011;553;51.038;7.216;2023-05-24T15:13:24;14.50;;;5.87;;
1128;SDS011;553;51.038;7.216;2023-05-24T15:15:51;12.60;;;5.17;;
1128;SDS011;553;51.038;7.216;2023-05-24T15:18:22;10.90;;;4.97;;
1128;SDS011;553;51.038;7.216;2023-05-24T15:20:50;14.50;;;5.20;;
1128;SDS011;553;51.038;7.216;2023-05-24T15:23:17;9.93;;;4.43;;
1128;SDS011;553;51.038;7.216;2023-05-24T15:25:46;18.03;;;5.03;;
1128;SDS011;553;51.038;7.216;2023-05-24T15:28:13;9.43;;;4.27;;
1128;SDS011;553;51.038;7.216;2023-05-24T15:30:42;14.20;;;4.40;;
1128;SDS011;553;51.038;7.216;2023-05-24T15:33:13;12.63;;;4.50;;
1128;SDS011;553;51.038;7.216;2023-05-24T15:35:42;9.20;;;4.10;;
1128;SDS011;553;51.038;7.216;2023-05-24T15:38:09;10.97;;;4.70;;
1128;SDS011;553;51.038;7.216;2023-05-24T15:40:36;13.77;;;4.67;;
1128;SDS011;553;51.038;7.216;2023-05-24T15:43:03;11.07;;;4.47;;
1128;SDS011;553;51.038;7.216;2023-05-24T15:45:30;15.53;;;4.60;;
1128;SDS011;553;51.038;7.216;2023-05-24T15:47:58;14.10;;;4.77;;
1128;SDS011;553;51.038;7.216;2023-05-24T15:50:24;12.60;;;4.63;;
1128;SDS011;553;51.038;7.216;2023-05-24T15:53:11;16.30;;;5.00;;
1128;SDS011;553;51.038;7.216;2023-05-24T15:55:38;12.67;;;4.70;;